sensor_id;sensor_type;location;lat;lon;timestamp;P1;durP1;ratioP1;P2;durP2;ratioP2
48578;SDS011;34357;51.948;6.132;2022-12-18T00:01:15;97.10;;;44.10;;
48578;SDS011;34357;51.948;6.132;2022-12-18T00:03:41;92.97;;;42.97;;
48578;SDS011;34357;51.948;6.132;2022-12-18T00:06:07;100.40;;;45.73;;
48578;SDS011;34357;51.948;6.132;2022-12-18T00:08:34;93.77;;;44.27;;
48578;SDS011;34357;51.948;6.132;2022-12-18T00:11:03;91.77;;;44.00;;
48578;SDS011;34357;51.948;6.132;2022-12-18T00:13:30;95.93;;;42.80;;
48578;SDS011;34357;51.948;6.132;2022-12-18T00:16:00;92.00;;;43.63;;
48578;SDS011;34357;51.948;6.132;2022-12-18T00:18:27;91.53;;;41.63;;
48578;SDS011;34357;51.948;6.132;2022-12-18T00:20:53;87.87;;;42.57;;
48578;SDS011;34357;51.948;6.132;2022-12-18T00:23:19;88.93;;;41.87;;
48578;SDS011;34357;51.948;6.132;2022-12-18T00:25:44;89.70;;;41.47;;
48578;SDS011;34357;51.948;6.132;2022-12-18T00:28:10;87.53;;;41.10;;
48578;SDS011;34357;51.948;6.132;2022-12-18T00:30:36;87.37;;;40.77;;
48578;SDS011;34357;51.948;6.132;2022-12-18T00:33:01;93.80;;;42.03;;
48578;SDS011;34357;51.948;6.132;2022-12-18T00:35:27;95.17;;;42.80;;
48578;SDS011;34357;51.948;6.132;2022-12-18T00:37:53;92.17;;;43.97;;
48578;SDS011;34357;51.948;6.132;2022-12-18T00:40:18;93.73;;;42.33;;
48578;SDS011;34357;51.948;6.132;2022-12-18T00:42:44;98.90;;;42.70;;
48578;SDS011;34357;51.948;6.132;2022-12-18T00:45:26;89.90;;;41.07;;
48578;SDS011;34357;51.948;6.132;2022-12-18T00:47:53;89.32;;;41.22;;
48578;SDS011;34357;51.948;6.132;2022-12-18T00:50:19;90.80;;;41.40;;
48578;SDS011;34357;51.948;6.132;2022-12-18T00:52:45;85.70;;;38.93;;
48578;SDS011;34357;51.948;6.132;2022-12-18T00:55:11;87.70;;;39.53;;
48578;SDS011;34357;51.948;6.132;2022-12-18T00:57:38;82.43;;;39.30;;
48578;SDS011;34357;51.948;6.132;2022-12-18T01:00:05;86.50;;;40.43;;
48578;SDS011;34357;51.948;6.132;2022-12-18T01:02:33;88.53;;;40.63;;
48578;SDS011;34357;51.948;6.132;2022-12-18T01:04:59;81.27;;;38.47;;
48578;SDS011;34357;51.948;6.132;2022-12-18T01:07:26;86.73;;;41.43;;
48578;SDS011;34357;51.948;6.132;2022-12-18T01:09:52;90.87;;;41.40;;
48578;SDS011;34357;51.948;6.132;2022-12-18T01:12:17;87.30;;;39.23;;
48578;SDS011;34357;51.948;6.132;2022-12-18T01:14:43;89.67;;;40.93;;
48578;SDS011;34357;51.948;6.132;2022-12-18T01:17:09;86.80;;;39.80;;
48578;SDS011;34357;51.948;6.132;2022-12-18T01:19:34;85.97;;;40.23;;
48578;SDS011;34357;51.948;6.132;2022-12-18T01:22:02;82.90;;;38.80;;
48578;SDS011;34357;51.948;6.132;2022-12-18T01:24:28;81.87;;;38.77;;
48578;SDS011;34357;51.948;6.132;2022-12-18T01:26:54;89.73;;;40.00;;
48578;SDS011;34357;51.948;6.132;2022-12-18T01:29:19;79.80;;;38.03;;
48578;SDS011;34357;51.948;6.132;2022-12-18T01:31:45;87.77;;;38.60;;
48578;SDS011;34357;51.948;6.132;2022-12-18T01:34:12;80.03;;;36.53;;
48578;SDS011;34357;51.948;6.132;2022-12-18T01:36:40;74.97;;;33.57;;
48578;SDS011;34357;51.948;6.132;2022-12-18T01:39:07;71.73;;;33.30;;
48578;SDS011;34357;51.948;6.132;2022-12-18T01:41:40;65.03;;;32.03;;
48578;SDS011;34357;51.948;6.132;2022-12-18T01:50:10;66.40;;;33.67;;
48578;SDS011;34357;51.948;6.132;2022-12-18T01:52:40;70.65;;;34.15;;
48578;SDS011;34357;51.948;6.132;2022-12-18T01:55:08;76.07;;;34.90;;
48578;SDS011;34357;51.948;6.132;2022-12-18T01:57:35;75.23;;;35.27;;
48578;SDS011;34357;51.948;6.132;2022-12-18T02:00:05;77.07;;;35.20;;
48578;SDS011;34357;51.948;6.132;2022-12-18T02:02:40;73.33;;;34.63;;
48578;SDS011;34357;51.948;6.132;2022-12-18T02:05:08;72.33;;;33.00;;
48578;SDS011;34357;51.948;6.132;2022-12-18T02:07:44;72.10;;;34.47;;
48578;SDS011;34357;51.948;6.132;2022-12-18T02:13:00;63.60;;;28.87;;
48578;SDS011;34357;51.948;6.132;2022-12-18T02:15:36;55.23;;;26.43;;
48578;SDS011;34357;51.948;6.132;2022-12-18T02:18:13;55.88;;;27.02;;
48578;SDS011;34357;51.948;6.132;2022-12-18T02:20:55;51.83;;;26.23;;
48578;SDS011;34357;51.948;6.132;2022-12-18T02:23:39;49.67;;;25.57;;
48578;SDS011;34357;51.948;6.132;2022-12-18T02:26:27;43.37;;;24.40;;
48578;SDS011;34357;51.948;6.132;2022-12-18T02:29:00;52.07;;;24.20;;
48578;SDS011;34357;51.948;6.132;2022-12-18T02:31:36;46.17;;;24.07;;
48578;SDS011;34357;51.948;6.132;2022-12-18T02:34:07;44.47;;;22.77;;
48578;SDS011;34357;51.948;6.132;2022-12-18T02:36:38;43.50;;;23.07;;
48578;SDS011;34357;51.948;6.132;2022-12-18T02:39:06;44.17;;;23.33;;
48578;SDS011;34357;51.948;6.132;2022-12-18T02:41:38;44.13;;;22.33;;
48578;SDS011;34357;51.948;6.132;2022-12-18T02:44:09;45.03;;;23.87;;
48578;SDS011;34357;51.948;6.132;2022-12-18T02:46:37;44.00;;;22.13;;
48578;SDS011;34357;51.948;6.132;2022-12-18T02:55:05;42.13;;;22.10;;
48578;SDS011;34357;51.948;6.132;2022-12-18T02:57:42;40.72;;;22.23;;
48578;SDS011;34357;51.948;6.132;2022-12-18T03:00:16;41.80;;;22.50;;
48578;SDS011;34357;51.948;6.132;2022-12-18T03:05:41;40.67;;;21.07;;
48578;SDS011;34357;51.948;6.132;2022-12-18T03:08:15;41.40;;;21.47;;
48578;SDS011;34357;51.948;6.132;2022-12-18T03:11:06;38.17;;;21.00;;
48578;SDS011;34357;51.948;6.132;2022-12-18T03:16:14;39.97;;;21.23;;
48578;SDS011;34357;51.948;6.132;2022-12-18T03:18:52;42.10;;;21.53;;
48578;SDS011;34357;51.948;6.132;2022-12-18T03:21:37;41.43;;;20.73;;
48578;SDS011;34357;51.948;6.132;2022-12-18T03:24:06;37.00;;;20.07;;
48578;SDS011;34357;51.948;6.132;2022-12-18T03:26:33;37.03;;;19.37;;
48578;SDS011;34357;51.948;6.132;2022-12-18T03:29:04;40.37;;;19.60;;
48578;SDS011;34357;51.948;6.132;2022-12-18T03:31:35;34.63;;;19.73;;
48578;SDS011;34357;51.948;6.132;2022-12-18T03:34:05;36.23;;;20.87;;
48578;SDS011;34357;51.948;6.132;2022-12-18T03:36:44;37.20;;;19.63;;
48578;SDS011;34357;51.948;6.132;2022-12-18T03:39:13;34.60;;;20.10;;
48578;SDS011;34357;51.948;6.132;2022-12-18T03:41:45;40.37;;;20.37;;
48578;SDS011;34357;51.948;6.132;2022-12-18T03:46:59;40.13;;;19.77;;
48578;SDS011;34357;51.948;6.132;2022-12-18T03:52:38;35.73;;;19.77;;
48578;SDS011;34357;51.948;6.132;2022-12-18T03:55:10;40.10;;;20.17;;
48578;SDS011;34357;51.948;6.132;2022-12-18T03:57:38;39.80;;;19.87;;
48578;SDS011;34357;51.948;6.132;2022-12-18T04:00:08;37.90;;;19.80;;
48578;SDS011;34357;51.948;6.132;2022-12-18T04:02:40;33.97;;;19.07;;
48578;SDS011;34357;51.948;6.132;2022-12-18T04:05:12;38.80;;;20.47;;
48578;SDS011;34357;51.948;6.132;2022-12-18T04:07:41;36.73;;;19.77;;
48578;SDS011;34357;51.948;6.132;2022-12-18T04:10:12;35.67;;;20.70;;
48578;SDS011;34357;51.948;6.132;2022-12-18T04:12:40;34.33;;;18.47;;
48578;SDS011;34357;51.948;6.132;2022-12-18T04:15:09;37.70;;;19.70;;
48578;SDS011;34357;51.948;6.132;2022-12-18T04:17:36;35.27;;;18.13;;
48578;SDS011;34357;51.948;6.132;2022-12-18T04:20:03;39.13;;;19.87;;
48578;SDS011;34357;51.948;6.132;2022-12-18T04:22:30;35.47;;;19.33;;
48578;SDS011;34357;51.948;6.132;2022-12-18T04:24:58;33.43;;;19.07;;
48578;SDS011;34357;51.948;6.132;2022-12-18T04:27:30;35.30;;;18.83;;
48578;SDS011;34357;51.948;6.132;2022-12-18T04:29:58;33.00;;;18.77;;
48578;SDS011;34357;51.948;6.132;2022-12-18T04:32:24;35.53;;;18.63;;
48578;SDS011;34357;51.948;6.132;2022-12-18T04:34:50;36.43;;;18.90;;
48578;SDS011;34357;51.948;6.132;2022-12-18T04:37:15;35.43;;;20.07;;
48578;SDS011;34357;51.948;6.132;2022-12-18T04:39:42;32.10;;;17.63;;
48578;SDS011;34357;51.948;6.132;2022-12-18T04:42:14;33.23;;;19.10;;
48578;SDS011;34357;51.948;6.132;2022-12-18T04:44:40;36.30;;;18.17;;
48578;SDS011;34357;51.948;6.132;2022-12-18T04:47:06;36.60;;;19.30;;
48578;SDS011;34357;51.948;6.132;2022-12-18T04:49:32;31.77;;;17.30;;
48578;SDS011;34357;51.948;6.132;2022-12-18T04:51:58;30.20;;;17.17;;
48578;SDS011;34357;51.948;6.132;2022-12-18T04:54:24;32.93;;;17.97;;
48578;SDS011;34357;51.948;6.132;2022-12-18T04:56:50;31.63;;;18.90;;
48578;SDS011;34357;51.948;6.132;2022-12-18T04:59:16;34.97;;;19.17;;
48578;SDS011;34357;51.948;6.132;2022-12-18T05:01:42;32.80;;;18.13;;
48578;SDS011;34357;51.948;6.132;2022-12-18T05:04:07;33.00;;;19.10;;
48578;SDS011;34357;51.948;6.132;2022-12-18T05:06:33;31.73;;;18.17;;
48578;SDS011;34357;51.948;6.132;2022-12-18T05:08:59;29.60;;;17.50;;
48578;SDS011;34357;51.948;6.132;2022-12-18T05:11:24;35.20;;;19.20;;
48578;SDS011;34357;51.948;6.132;2022-12-18T05:13:50;39.37;;;19.90;;
48578;SDS011;34357;51.948;6.132;2022-12-18T05:16:16;32.07;;;18.40;;
48578;SDS011;34357;51.948;6.132;2022-12-18T05:18:41;37.03;;;19.40;;
48578;SDS011;34357;51.948;6.132;2022-12-18T05:21:07;31.17;;;18.97;;
48578;SDS011;34357;51.948;6.132;2022-12-18T05:23:36;34.60;;;18.97;;
48578;SDS011;34357;51.948;6.132;2022-12-18T05:26:03;33.83;;;19.47;;
48578;SDS011;34357;51.948;6.132;2022-12-18T05:28:31;35.07;;;18.80;;
48578;SDS011;34357;51.948;6.132;2022-12-18T05:30:58;36.10;;;19.23;;
48578;SDS011;34357;51.948;6.132;2022-12-18T05:33:26;32.70;;;18.53;;
48578;SDS011;34357;51.948;6.132;2022-12-18T05:35:55;32.00;;;17.97;;
48578;SDS011;34357;51.948;6.132;2022-12-18T05:38:31;29.70;;;17.77;;
48578;SDS011;34357;51.948;6.132;2022-12-18T05:40:58;32.57;;;16.83;;
48578;SDS011;34357;51.948;6.132;2022-12-18T05:43:25;32.53;;;18.43;;
48578;SDS011;34357;51.948;6.132;2022-12-18T05:45:51;32.50;;;18.50;;
48578;SDS011;34357;51.948;6.132;2022-12-18T05:48:18;30.07;;;17.40;;
48578;SDS011;34357;51.948;6.132;2022-12-18T05:50:45;31.13;;;17.43;;
48578;SDS011;34357;51.948;6.132;2022-12-18T05:53:12;30.43;;;17.23;;
48578;SDS011;34357;51.948;6.132;2022-12-18T05:55:40;28.10;;;16.47;;
48578;SDS011;34357;51.948;6.132;2022-12-18T05:58:07;32.57;;;18.67;;
48578;SDS011;34357;51.948;6.132;2022-12-18T06:00:34;32.47;;;17.83;;
48578;SDS011;34357;51.948;6.132;2022-12-18T06:03:05;31.67;;;18.48;;
48578;SDS011;34357;51.948;6.132;2022-12-18T06:05:44;32.50;;;17.73;;
48578;SDS011;34357;51.948;6.132;2022-12-18T06:08:10;31.17;;;18.57;;
48578;SDS011;34357;51.948;6.132;2022-12-18T06:10:37;31.23;;;17.97;;
48578;SDS011;34357;51.948;6.132;2022-12-18T06:13:05;32.37;;;18.33;;
48578;SDS011;34357;51.948;6.132;2022-12-18T06:15:31;31.50;;;18.30;;
48578;SDS011;34357;51.948;6.132;2022-12-18T06:17:57;36.57;;;19.67;;
48578;SDS011;34357;51.948;6.132;2022-12-18T06:20:25;30.87;;;18.90;;
48578;SDS011;34357;51.948;6.132;2022-12-18T06:22:50;31.37;;;17.97;;
48578;SDS011;34357;51.948;6.132;2022-12-18T06:25:17;33.10;;;18.00;;
48578;SDS011;34357;51.948;6.132;2022-12-18T06:27:43;31.10;;;18.17;;
48578;SDS011;34357;51.948;6.132;2022-12-18T06:30:09;32.50;;;17.87;;
48578;SDS011;34357;51.948;6.132;2022-12-18T06:32:35;33.03;;;18.57;;
48578;SDS011;34357;51.948;6.132;2022-12-18T06:35:01;31.53;;;17.60;;
48578;SDS011;34357;51.948;6.132;2022-12-18T06:37:26;29.60;;;17.67;;
48578;SDS011;34357;51.948;6.132;2022-12-18T06:39:53;32.43;;;17.93;;
48578;SDS011;34357;51.948;6.132;2022-12-18T06:42:22;31.97;;;17.67;;
48578;SDS011;34357;51.948;6.132;2022-12-18T06:44:48;34.87;;;17.87;;
48578;SDS011;34357;51.948;6.132;2022-12-18T06:47:14;33.70;;;18.33;;
48578;SDS011;34357;51.948;6.132;2022-12-18T06:49:40;29.97;;;17.67;;
48578;SDS011;34357;51.948;6.132;2022-12-18T06:52:06;34.53;;;18.77;;
48578;SDS011;34357;51.948;6.132;2022-12-18T06:54:31;29.33;;;17.23;;
48578;SDS011;34357;51.948;6.132;2022-12-18T06:56:57;33.63;;;19.20;;
48578;SDS011;34357;51.948;6.132;2022-12-18T06:59:23;34.80;;;18.33;;
48578;SDS011;34357;51.948;6.132;2022-12-18T07:01:48;31.27;;;17.77;;
48578;SDS011;34357;51.948;6.132;2022-12-18T07:04:14;31.33;;;17.73;;
48578;SDS011;34357;51.948;6.132;2022-12-18T07:06:40;30.27;;;16.53;;
48578;SDS011;34357;51.948;6.132;2022-12-18T07:09:05;28.07;;;16.57;;
48578;SDS011;34357;51.948;6.132;2022-12-18T07:11:34;29.10;;;17.03;;
48578;SDS011;34357;51.948;6.132;2022-12-18T07:14:00;27.30;;;15.47;;
48578;SDS011;34357;51.948;6.132;2022-12-18T07:16:25;29.00;;;16.13;;
48578;SDS011;34357;51.948;6.132;2022-12-18T07:18:56;27.87;;;15.17;;
48578;SDS011;34357;51.948;6.132;2022-12-18T07:21:22;29.47;;;15.37;;
48578;SDS011;34357;51.948;6.132;2022-12-18T07:23:49;26.83;;;14.20;;
48578;SDS011;34357;51.948;6.132;2022-12-18T07:26:16;26.77;;;14.30;;
48578;SDS011;34357;51.948;6.132;2022-12-18T07:28:43;26.07;;;14.50;;
48578;SDS011;34357;51.948;6.132;2022-12-18T07:31:10;22.53;;;14.00;;
48578;SDS011;34357;51.948;6.132;2022-12-18T07:33:37;25.03;;;14.40;;
48578;SDS011;34357;51.948;6.132;2022-12-18T07:36:03;24.10;;;13.50;;
48578;SDS011;34357;51.948;6.132;2022-12-18T07:38:31;24.57;;;14.17;;
48578;SDS011;34357;51.948;6.132;2022-12-18T07:41:00;23.37;;;14.37;;
48578;SDS011;34357;51.948;6.132;2022-12-18T07:43:31;27.77;;;13.87;;
48578;SDS011;34357;51.948;6.132;2022-12-18T07:45:57;24.77;;;13.70;;
48578;SDS011;34357;51.948;6.132;2022-12-18T07:48:23;24.53;;;13.37;;
48578;SDS011;34357;51.948;6.132;2022-12-18T07:50:48;23.87;;;13.47;;
48578;SDS011;34357;51.948;6.132;2022-12-18T07:53:14;24.03;;;13.07;;
48578;SDS011;34357;51.948;6.132;2022-12-18T07:55:40;23.57;;;14.00;;
48578;SDS011;34357;51.948;6.132;2022-12-18T07:58:07;26.03;;;13.13;;
48578;SDS011;34357;51.948;6.132;2022-12-18T08:00:33;23.70;;;12.97;;
48578;SDS011;34357;51.948;6.132;2022-12-18T08:02:59;22.33;;;13.23;;
48578;SDS011;34357;51.948;6.132;2022-12-18T08:05:25;20.77;;;12.13;;
48578;SDS011;34357;51.948;6.132;2022-12-18T08:07:51;22.37;;;13.60;;
48578;SDS011;34357;51.948;6.132;2022-12-18T08:10:17;25.40;;;13.00;;
48578;SDS011;34357;51.948;6.132;2022-12-18T08:12:43;22.73;;;12.30;;
48578;SDS011;34357;51.948;6.132;2022-12-18T08:15:09;24.57;;;12.43;;
48578;SDS011;34357;51.948;6.132;2022-12-18T08:17:35;22.07;;;12.67;;
48578;SDS011;34357;51.948;6.132;2022-12-18T08:20:01;23.23;;;12.93;;
48578;SDS011;34357;51.948;6.132;2022-12-18T08:22:26;24.20;;;13.60;;
48578;SDS011;34357;51.948;6.132;2022-12-18T08:24:52;21.97;;;12.73;;
48578;SDS011;34357;51.948;6.132;2022-12-18T08:27:18;25.60;;;13.33;;
48578;SDS011;34357;51.948;6.132;2022-12-18T08:29:43;23.27;;;13.17;;
48578;SDS011;34357;51.948;6.132;2022-12-18T08:32:09;25.47;;;13.17;;
48578;SDS011;34357;51.948;6.132;2022-12-18T08:34:35;23.03;;;11.77;;
48578;SDS011;34357;51.948;6.132;2022-12-18T08:37:01;23.27;;;12.60;;
48578;SDS011;34357;51.948;6.132;2022-12-18T08:39:26;22.77;;;12.77;;
48578;SDS011;34357;51.948;6.132;2022-12-18T08:44:34;23.00;;;12.70;;
48578;SDS011;34357;51.948;6.132;2022-12-18T08:47:03;27.20;;;13.67;;
48578;SDS011;34357;51.948;6.132;2022-12-18T08:49:30;25.37;;;13.53;;
48578;SDS011;34357;51.948;6.132;2022-12-18T08:51:55;23.17;;;12.13;;
48578;SDS011;34357;51.948;6.132;2022-12-18T08:54:24;24.27;;;12.70;;
48578;SDS011;34357;51.948;6.132;2022-12-18T08:56:51;24.20;;;13.40;;
48578;SDS011;34357;51.948;6.132;2022-12-18T08:59:17;25.50;;;14.00;;
48578;SDS011;34357;51.948;6.132;2022-12-18T09:01:43;25.77;;;13.87;;
48578;SDS011;34357;51.948;6.132;2022-12-18T09:04:10;24.53;;;13.23;;
48578;SDS011;34357;51.948;6.132;2022-12-18T09:06:36;25.50;;;13.40;;
48578;SDS011;34357;51.948;6.132;2022-12-18T09:09:02;23.00;;;12.83;;
48578;SDS011;34357;51.948;6.132;2022-12-18T09:11:29;21.30;;;12.93;;
48578;SDS011;34357;51.948;6.132;2022-12-18T09:13:56;21.17;;;12.43;;
48578;SDS011;34357;51.948;6.132;2022-12-18T09:16:24;24.67;;;13.07;;
48578;SDS011;34357;51.948;6.132;2022-12-18T09:18:51;21.00;;;12.40;;
48578;SDS011;34357;51.948;6.132;2022-12-18T09:21:19;24.67;;;12.50;;
48578;SDS011;34357;51.948;6.132;2022-12-18T09:23:52;22.20;;;12.27;;
48578;SDS011;34357;51.948;6.132;2022-12-18T09:26:19;19.27;;;12.23;;
48578;SDS011;34357;51.948;6.132;2022-12-18T09:28:45;21.20;;;12.00;;
48578;SDS011;34357;51.948;6.132;2022-12-18T09:31:11;19.23;;;11.60;;
48578;SDS011;34357;51.948;6.132;2022-12-18T09:36:09;22.17;;;11.90;;
48578;SDS011;34357;51.948;6.132;2022-12-18T09:38:36;20.37;;;12.00;;
48578;SDS011;34357;51.948;6.132;2022-12-18T09:44:48;20.50;;;12.13;;
48578;SDS011;34357;51.948;6.132;2022-12-18T09:46:53;21.27;;;11.27;;
48578;SDS011;34357;51.948;6.132;2022-12-18T09:49:27;24.43;;;12.20;;
48578;SDS011;34357;51.948;6.132;2022-12-18T09:51:57;20.97;;;11.77;;
48578;SDS011;34357;51.948;6.132;2022-12-18T09:54:44;21.03;;;11.10;;
48578;SDS011;34357;51.948;6.132;2022-12-18T09:57:24;19.57;;;11.40;;
48578;SDS011;34357;51.948;6.132;2022-12-18T09:59:55;22.13;;;12.33;;
48578;SDS011;34357;51.948;6.132;2022-12-18T10:02:36;19.23;;;11.23;;
48578;SDS011;34357;51.948;6.132;2022-12-18T10:05:13;21.50;;;11.60;;
48578;SDS011;34357;51.948;6.132;2022-12-18T10:08:02;19.40;;;11.23;;
48578;SDS011;34357;51.948;6.132;2022-12-18T10:13:57;20.97;;;11.40;;
48578;SDS011;34357;51.948;6.132;2022-12-18T10:21:34;20.70;;;10.97;;
48578;SDS011;34357;51.948;6.132;2022-12-18T10:24:18;20.50;;;11.73;;
48578;SDS011;34357;51.948;6.132;2022-12-18T10:26:51;20.37;;;10.93;;
48578;SDS011;34357;51.948;6.132;2022-12-18T10:29:21;19.93;;;11.70;;
48578;SDS011;34357;51.948;6.132;2022-12-18T10:31:47;22.97;;;12.00;;
48578;SDS011;34357;51.948;6.132;2022-12-18T10:34:15;20.33;;;11.50;;
48578;SDS011;34357;51.948;6.132;2022-12-18T10:36:41;22.97;;;11.63;;
48578;SDS011;34357;51.948;6.132;2022-12-18T10:39:41;24.60;;;12.73;;
48578;SDS011;34357;51.948;6.132;2022-12-18T10:45:28;19.00;;;11.50;;
48578;SDS011;34357;51.948;6.132;2022-12-18T10:47:50;20.20;;;12.10;;
48578;SDS011;34357;51.948;6.132;2022-12-18T10:50:19;20.67;;;11.80;;
48578;SDS011;34357;51.948;6.132;2022-12-18T10:52:59;19.67;;;10.87;;
48578;SDS011;34357;51.948;6.132;2022-12-18T10:55:34;21.83;;;11.30;;
48578;SDS011;34357;51.948;6.132;2022-12-18T10:58:16;24.80;;;12.37;;
48578;SDS011;34357;51.948;6.132;2022-12-18T11:03:45;20.37;;;10.87;;
48578;SDS011;34357;51.948;6.132;2022-12-18T11:06:23;17.87;;;10.83;;
48578;SDS011;34357;51.948;6.132;2022-12-18T11:09:00;19.07;;;10.80;;
48578;SDS011;34357;51.948;6.132;2022-12-18T11:11:28;21.93;;;11.10;;
48578;SDS011;34357;51.948;6.132;2022-12-18T11:16:23;19.70;;;12.20;;
48578;SDS011;34357;51.948;6.132;2022-12-18T11:18:49;20.83;;;11.93;;
48578;SDS011;34357;51.948;6.132;2022-12-18T11:21:15;22.57;;;11.43;;
48578;SDS011;34357;51.948;6.132;2022-12-18T11:23:51;18.40;;;11.27;;
48578;SDS011;34357;51.948;6.132;2022-12-18T11:26:18;22.87;;;11.47;;
48578;SDS011;34357;51.948;6.132;2022-12-18T11:28:47;18.80;;;11.87;;
48578;SDS011;34357;51.948;6.132;2022-12-18T11:31:17;19.27;;;11.77;;
48578;SDS011;34357;51.948;6.132;2022-12-18T11:36:21;21.13;;;11.33;;
48578;SDS011;34357;51.948;6.132;2022-12-18T11:38:48;21.03;;;11.30;;
48578;SDS011;34357;51.948;6.132;2022-12-18T11:44:19;18.40;;;10.40;;
48578;SDS011;34357;51.948;6.132;2022-12-18T11:46:52;20.73;;;10.80;;
48578;SDS011;34357;51.948;6.132;2022-12-18T11:49:33;19.63;;;10.83;;
48578;SDS011;34357;51.948;6.132;2022-12-18T11:52:02;20.17;;;11.40;;
48578;SDS011;34357;51.948;6.132;2022-12-18T11:54:51;19.67;;;11.27;;
48578;SDS011;34357;51.948;6.132;2022-12-18T12:00:09;16.27;;;9.93;;
48578;SDS011;34357;51.948;6.132;2022-12-18T12:02:57;17.53;;;11.07;;
48578;SDS011;34357;51.948;6.132;2022-12-18T12:05:34;19.60;;;10.73;;
48578;SDS011;34357;51.948;6.132;2022-12-18T12:08:33;18.37;;;9.37;;
48578;SDS011;34357;51.948;6.132;2022-12-18T12:13:45;17.87;;;11.17;;
48578;SDS011;34357;51.948;6.132;2022-12-18T12:16:17;21.07;;;11.10;;
48578;SDS011;34357;51.948;6.132;2022-12-18T12:26:45;19.60;;;11.60;;
48578;SDS011;34357;51.948;6.132;2022-12-18T12:32:17;18.70;;;10.37;;
48578;SDS011;34357;51.948;6.132;2022-12-18T12:35:05;18.60;;;10.23;;
48578;SDS011;34357;51.948;6.132;2022-12-18T12:40:33;19.23;;;10.93;;
48578;SDS011;34357;51.948;6.132;2022-12-18T12:45:44;21.27;;;11.50;;
48578;SDS011;34357;51.948;6.132;2022-12-18T12:48:58;18.13;;;10.70;;
48578;SDS011;34357;51.948;6.132;2022-12-18T12:51:19;19.37;;;11.10;;
48578;SDS011;34357;51.948;6.132;2022-12-18T12:53:45;20.93;;;11.40;;
48578;SDS011;34357;51.948;6.132;2022-12-18T12:56:11;26.87;;;12.40;;
48578;SDS011;34357;51.948;6.132;2022-12-18T12:58:46;22.70;;;11.97;;
48578;SDS011;34357;51.948;6.132;2022-12-18T13:09:19;18.67;;;11.07;;
48578;SDS011;34357;51.948;6.132;2022-12-18T13:11:45;22.17;;;12.10;;
48578;SDS011;34357;51.948;6.132;2022-12-18T13:19:43;23.13;;;11.77;;
48578;SDS011;34357;51.948;6.132;2022-12-18T13:22:20;23.03;;;12.30;;
48578;SDS011;34357;51.948;6.132;2022-12-18T13:24:53;22.43;;;11.67;;
48578;SDS011;34357;51.948;6.132;2022-12-18T13:27:44;20.70;;;11.67;;
48578;SDS011;34357;51.948;6.132;2022-12-18T13:30:40;22.40;;;12.23;;
48578;SDS011;34357;51.948;6.132;2022-12-18T13:38:21;21.53;;;11.77;;
48578;SDS011;34357;51.948;6.132;2022-12-18T13:48:51;25.83;;;13.07;;
48578;SDS011;34357;51.948;6.132;2022-12-18T13:51:22;22.33;;;12.33;;
48578;SDS011;34357;51.948;6.132;2022-12-18T13:53:50;24.57;;;12.40;;
48578;SDS011;34357;51.948;6.132;2022-12-18T13:56:21;21.33;;;13.43;;
48578;SDS011;34357;51.948;6.132;2022-12-18T13:59:03;25.80;;;13.13;;
48578;SDS011;34357;51.948;6.132;2022-12-18T14:01:48;25.80;;;14.43;;
48578;SDS011;34357;51.948;6.132;2022-12-18T14:07:15;26.83;;;13.37;;
48578;SDS011;34357;51.948;6.132;2022-12-18T14:09:49;21.67;;;12.17;;
48578;SDS011;34357;51.948;6.132;2022-12-18T14:12:22;25.77;;;13.87;;
48578;SDS011;34357;51.948;6.132;2022-12-18T14:17:59;22.93;;;13.27;;
48578;SDS011;34357;51.948;6.132;2022-12-18T14:20:25;21.57;;;13.03;;
48578;SDS011;34357;51.948;6.132;2022-12-18T14:22:56;22.38;;;12.98;;
48578;SDS011;34357;51.948;6.132;2022-12-18T14:25:26;21.13;;;12.43;;
48578;SDS011;34357;51.948;6.132;2022-12-18T14:30:40;25.47;;;13.93;;
48578;SDS011;34357;51.948;6.132;2022-12-18T14:35:34;23.23;;;13.47;;
48578;SDS011;34357;51.948;6.132;2022-12-18T14:38:36;23.07;;;13.37;;
48578;SDS011;34357;51.948;6.132;2022-12-18T14:43:32;24.10;;;12.77;;
48578;SDS011;34357;51.948;6.132;2022-12-18T14:46:00;26.67;;;12.50;;
48578;SDS011;34357;51.948;6.132;2022-12-18T14:48:35;23.60;;;12.97;;
48578;SDS011;34357;51.948;6.132;2022-12-18T14:51:14;24.87;;;14.03;;
48578;SDS011;34357;51.948;6.132;2022-12-18T14:54:16;25.43;;;13.87;;
48578;SDS011;34357;51.948;6.132;2022-12-18T14:56:45;25.63;;;13.70;;
48578;SDS011;34357;51.948;6.132;2022-12-18T14:59:14;23.30;;;13.47;;
48578;SDS011;34357;51.948;6.132;2022-12-18T15:01:58;21.80;;;13.10;;
48578;SDS011;34357;51.948;6.132;2022-12-18T15:09:42;26.20;;;13.73;;
48578;SDS011;34357;51.948;6.132;2022-12-18T15:12:38;30.30;;;17.40;;
48578;SDS011;34357;51.948;6.132;2022-12-18T15:15:41;29.43;;;14.10;;
48578;SDS011;34357;51.948;6.132;2022-12-18T15:20:40;28.60;;;14.17;;
48578;SDS011;34357;51.948;6.132;2022-12-18T15:23:17;24.60;;;13.53;;
48578;SDS011;34357;51.948;6.132;2022-12-18T15:25:44;26.03;;;14.60;;
48578;SDS011;34357;51.948;6.132;2022-12-18T15:28:15;26.00;;;14.37;;
48578;SDS011;34357;51.948;6.132;2022-12-18T15:34:12;26.53;;;14.20;;
48578;SDS011;34357;51.948;6.132;2022-12-18T15:36:18;25.87;;;14.63;;
48578;SDS011;34357;51.948;6.132;2022-12-18T15:38:48;23.53;;;13.10;;
48578;SDS011;34357;51.948;6.132;2022-12-18T15:41:19;30.27;;;15.63;;
48578;SDS011;34357;51.948;6.132;2022-12-18T15:43:49;27.67;;;15.50;;
48578;SDS011;34357;51.948;6.132;2022-12-18T15:46:17;28.60;;;15.73;;
48578;SDS011;34357;51.948;6.132;2022-12-18T15:48:45;26.93;;;15.03;;
48578;SDS011;34357;51.948;6.132;2022-12-18T15:53:58;24.93;;;14.43;;
48578;SDS011;34357;51.948;6.132;2022-12-18T15:56:26;26.23;;;15.07;;
48578;SDS011;34357;51.948;6.132;2022-12-18T15:59:12;28.37;;;16.57;;
48578;SDS011;34357;51.948;6.132;2022-12-18T16:01:46;29.42;;;16.35;;
48578;SDS011;34357;51.948;6.132;2022-12-18T16:06:41;28.40;;;15.17;;
48578;SDS011;34357;51.948;6.132;2022-12-18T16:09:07;28.17;;;15.77;;
48578;SDS011;34357;51.948;6.132;2022-12-18T16:11:34;29.13;;;15.77;;
48578;SDS011;34357;51.948;6.132;2022-12-18T16:16:53;28.53;;;15.73;;
48578;SDS011;34357;51.948;6.132;2022-12-18T16:19:21;31.87;;;16.87;;
48578;SDS011;34357;51.948;6.132;2022-12-18T16:21:48;32.70;;;17.17;;
48578;SDS011;34357;51.948;6.132;2022-12-18T16:24:19;30.67;;;16.90;;
48578;SDS011;34357;51.948;6.132;2022-12-18T16:26:49;31.67;;;17.67;;
48578;SDS011;34357;51.948;6.132;2022-12-18T16:29:19;31.13;;;17.53;;
48578;SDS011;34357;51.948;6.132;2022-12-18T16:31:55;31.97;;;18.47;;
48578;SDS011;34357;51.948;6.132;2022-12-18T16:37:06;32.73;;;18.53;;
48578;SDS011;34357;51.948;6.132;2022-12-18T16:39:35;32.43;;;18.47;;
48578;SDS011;34357;51.948;6.132;2022-12-18T16:42:02;34.53;;;18.43;;
48578;SDS011;34357;51.948;6.132;2022-12-18T16:44:31;33.13;;;18.97;;
48578;SDS011;34357;51.948;6.132;2022-12-18T16:46:57;32.90;;;18.03;;
48578;SDS011;34357;51.948;6.132;2022-12-18T16:49:27;30.70;;;18.03;;
48578;SDS011;34357;51.948;6.132;2022-12-18T16:51:53;32.90;;;18.03;;
48578;SDS011;34357;51.948;6.132;2022-12-18T16:54:19;32.53;;;19.60;;
48578;SDS011;34357;51.948;6.132;2022-12-18T16:56:45;33.47;;;18.43;;
48578;SDS011;34357;51.948;6.132;2022-12-18T16:59:13;37.70;;;19.33;;